Time;durP1;ratioP1;P1;durP2;ratioP2;P2;SDS_P1;SDS_P2;PMS_P1;PMS_P2;Temp;Humidity;BMP_temperature;BMP_pressure;BME280_temperature;BME280_humidity;BME280_pressure;Samples;Min_cycle;Max_cycle;Signal;HPM_P1;HPM_P2
2022/12/13 00:01:29;;;;;;;41.03;21.97;;;-0.20;74.20;;;2.69;55.94;101279.00;5044170;28;20220;-54
2022/12/13 00:03:58;;;;;;;38.73;22.10;;;-0.20;74.50;;;2.78;56.16;101267.13;5054588;28;20282;-54
2022/12/13 00:06:27;;;;;;;41.50;21.43;;;-0.10;75.30;;;2.89;56.34;101271.50;5053767;28;20200;-52
2022/12/13 00:08:54;;;;;;;40.80;23.07;;;0.00;75.30;;;2.98;55.73;101265.63;5053528;28;20207;-53
2022/12/13 00:11:21;;;;;;;46.70;23.77;;;0.00;74.60;;;3.08;55.22;101264.03;5053675;28;20238;-54
2022/12/13 00:13:49;;;;;;;38.60;22.27;;;0.10;74.40;;;3.16;55.24;101259.09;5055797;28;20266;-54
2022/12/13 00:16:21;;;;;;;36.30;22.40;;;0.20;75.00;;;3.22;54.74;101248.22;5055819;28;20253;-52
2022/12/13 00:18:54;;;;;;;36.53;22.53;;;0.30;74.10;;;3.26;54.84;101250.47;5055441;28;20276;-54
2022/12/13 00:21:23;;;;;;;35.03;22.27;;;0.30;73.80;;;3.27;54.65;101243.50;5054327;28;20211;-51
2022/12/13 00:23:51;;;;;;;38.93;22.63;;;0.30;73.60;;;3.27;54.60;101251.31;5054420;28;20253;-52
2022/12/13 00:26:21;;;;;;;37.50;22.43;;;0.40;73.20;;;3.24;54.56;101243.72;5054295;28;20258;-51
2022/12/13 00:28:50;;;;;;;34.30;20.53;;;0.40;72.80;;;3.24;54.57;101243.72;5053200;28;20663;-52
2022/12/13 00:31:19;;;;;;;35.70;21.50;;;0.40;72.90;;;3.27;54.72;101246.94;5053497;28;20221;-52
2022/12/13 00:34:07;;;;;;;36.10;21.43;;;0.40;73.00;;;3.30;54.13;101241.50;5053369;28;20214;-52
2022/12/13 00:36:34;;;;;;;40.83;21.67;;;0.40;72.60;;;3.31;54.25;101247.53;5053388;28;20667;-54
2022/12/13 00:39:02;;;;;;;34.93;21.27;;;0.40;72.20;;;3.31;53.95;101250.13;5052520;28;20707;-55
2022/12/13 00:41:32;;;;;;;37.43;21.33;;;0.40;72.00;;;3.30;53.97;101243.28;5053169;28;20276;-52
2022/12/13 00:44:00;;;;;;;38.27;22.03;;;0.40;72.00;;;3.26;54.01;101247.03;5054810;28;20192;-53
2022/12/13 00:46:27;;;;;;;38.93;22.77;;;0.40;71.90;;;3.25;54.43;101243.63;5057678;28;20202;-54
2022/12/13 00:48:57;;;;;;;32.57;20.13;;;0.40;72.50;;;3.27;54.36;101240.91;5056865;28;20235;-52
2022/12/13 00:51:28;;;;;;;37.67;21.83;;;0.50;72.30;;;3.30;53.81;101232.88;5057583;28;20669;-54
2022/12/13 00:53:55;;;;;;;35.50;21.87;;;0.50;72.00;;;3.31;53.56;101231.91;5056972;28;20686;-50
2022/12/13 00:56:25;;;;;;;38.40;22.53;;;0.50;72.00;;;3.31;54.03;101237.13;5057462;28;20648;-52
2022/12/13 00:58:55;;;;;;;40.03;22.03;;;0.50;72.10;;;3.33;53.78;101232.63;5056342;28;20211;-53
2022/12/13 01:01:25;;;;;;;34.93;21.57;;;0.50;72.10;;;3.37;54.28;101227.09;5056343;28;20263;-54
2022/12/13 01:03:54;;;;;;;36.47;20.77;;;0.50;72.20;;;3.42;53.92;101229.34;5056649;28;20202;-53
2022/12/13 01:06:28;;;;;;;33.67;21.07;;;0.50;72.00;;;3.45;53.65;101234.31;5057099;28;20643;-50
2022/12/13 01:08:55;;;;;;;38.60;20.77;;;0.60;71.90;;;3.48;53.65;101234.06;5056447;28;20209;-52
2022/12/13 01:11:23;;;;;;;33.93;20.33;;;0.60;71.60;;;3.52;53.53;101230.28;5056636;28;20662;-52
2022/12/13 01:13:50;;;;;;;34.17;21.10;;;0.60;71.90;;;3.57;53.25;101225.56;5056780;28;20249;-52
2022/12/13 01:16:17;;;;;;;35.33;22.10;;;0.70;71.60;;;3.61;53.17;101219.19;5056972;28;20190;-54
2022/12/13 01:18:45;;;;;;;35.90;21.50;;;0.70;71.20;;;3.64;53.08;101225.91;5056403;28;20237;-54
2022/12/13 01:21:15;;;;;;;37.93;21.73;;;0.70;71.20;;;3.67;53.79;101223.91;5056820;28;20190;-54
2022/12/13 01:23:44;;;;;;;36.57;20.47;;;0.80;71.50;;;3.72;53.45;101232.19;5056637;28;20185;-52
2022/12/13 01:26:19;;;;;;;35.17;21.10;;;0.80;71.30;;;3.77;52.85;101221.44;5056409;28;20596;-52
2022/12/13 01:28:47;;;;;;;34.33;20.37;;;0.80;71.30;;;3.81;53.16;101218.47;5056394;28;20221;-52
2022/12/13 01:31:18;;;;;;;31.53;21.73;;;0.90;70.70;;;3.79;53.33;101220.38;5056800;28;20578;-53
2022/12/13 01:33:45;;;;;;;32.23;20.80;;;0.90;70.50;;;3.79;53.23;101219.53;5056458;28;20263;-54
2022/12/13 01:36:17;;;;;;;40.37;21.63;;;1.00;70.50;;;3.82;52.92;101220.13;5056168;28;20689;-52
2022/12/13 01:38:45;;;;;;;36.80;22.50;;;1.00;70.40;;;3.82;52.27;101221.91;5055230;28;20237;-54
2022/12/13 01:41:15;;;;;;;37.87;21.60;;;1.00;70.10;;;3.77;52.16;101219.66;5056118;28;20187;-52
2022/12/13 01:43:59;;;;;;;35.57;20.23;;;1.00;69.50;;;3.68;52.03;101225.59;5056045;28;20215;-52
2022/12/13 01:46:26;;;;;;;35.47;21.40;;;0.90;69.20;;;3.61;51.95;101220.97;5049037;28;20198;-52
2022/12/13 01:49:03;;;;;;;35.90;21.10;;;0.90;69.20;;;3.52;52.22;101229.47;5055396;28;20694;-52
2022/12/13 01:51:36;;;;;;;35.97;21.00;;;0.80;69.30;;;3.45;52.47;101213.50;5056292;28;20234;-54
2022/12/13 01:54:09;;;;;;;36.47;21.17;;;0.80;69.50;;;3.42;53.20;101211.94;5056111;28;20243;-53
2022/12/13 01:56:40;;;;;;;35.47;21.57;;;0.70;70.20;;;3.43;53.18;101218.81;5055204;28;20195;-53
2022/12/13 01:59:10;;;;;;;34.97;21.87;;;0.70;70.70;;;3.49;53.63;101208.91;5055413;28;20582;-53
2022/12/13 02:01:38;;;;;;;33.80;20.50;;;0.70;71.00;;;3.54;53.00;101217.19;5055478;28;20219;-54
2022/12/13 02:04:07;;;;;;;34.40;19.07;;;0.70;70.60;;;3.56;52.89;101220.50;5055467;28;20187;-53
2022/12/13 02:06:39;;;;;;;34.70;20.87;;;0.70;70.50;;;3.56;52.87;101223.94;5055734;28;20280;-53
2022/12/13 02:09:09;;;;;;;37.03;21.17;;;0.80;70.30;;;3.47;52.08;101218.59;5055408;28;20259;-52
2022/12/13 02:11:40;;;;;;;33.37;20.37;;;0.70;69.20;;;3.36;51.95;101214.19;5056150;28;20209;-50
2022/12/13 02:14:08;;;;;;;35.23;20.07;;;0.70;68.70;;;3.27;52.28;101220.09;5055548;28;20596;-52
2022/12/13 02:16:53;;;;;;;31.47;20.20;;;0.60;69.00;;;3.17;52.41;101213.94;5055656;28;20206;-52
2022/12/13 02:19:59;;;;;;;33.93;20.47;;;0.50;69.10;;;3.05;52.38;101209.66;5055229;28;20276;-51
2022/12/13 02:22:56;;;;;;;35.40;18.73;;;0.40;69.10;;;2.94;52.61;101207.03;5058040;28;20210;-53
2022/12/13 02:26:05;;;;;;;35.80;20.43;;;0.30;69.30;;;2.87;53.66;101208.44;5055165;28;20268;-52
2022/12/13 02:29:00;;;;;;;34.67;20.10;;;0.20;70.50;;;2.90;53.86;101198.63;5053123;28;20238;-54
2022/12/13 02:31:40;;;;;;;36.17;20.67;;;0.20;71.30;;;2.95;53.50;101203.50;5035432;28;20199;-53
2022/12/13 02:34:17;;;;;;;38.63;20.77;;;0.20;70.90;;;2.92;53.06;101201.13;5035633;28;20187;-52
2022/12/13 02:36:56;;;;;;;31.30;20.77;;;0.20;70.20;;;2.84;52.81;101206.06;5035653;28;20213;-53
2022/12/13 02:39:30;;;;;;;35.37;20.57;;;0.10;70.60;;;2.81;53.06;101199.31;5034189;28;20217;-53
2022/12/13 02:42:04;;;;;;;38.83;21.93;;;0.10;70.40;;;2.77;53.42;101199.66;5034816;28;20225;-54
2022/12/13 02:44:39;;;;;;;36.03;20.87;;;0.00;70.40;;;2.77;53.53;101194.44;5034878;28;20209;-55
2022/12/13 02:47:13;;;;;;;35.17;19.33;;;0.00;71.30;;;2.79;53.31;101189.97;5044245;28;20265;-52
2022/12/13 02:49:54;;;;;;;36.33;21.50;;;0.00;70.80;;;2.71;52.88;101195.72;5054615;28;20216;-53
2022/12/13 02:52:28;;;;;;;34.40;21.27;;;0.00;69.90;;;2.60;52.86;101195.69;5054897;28;20547;-51
2022/12/13 02:54:57;;;;;;;36.27;20.50;;;-0.10;69.80;;;2.52;53.16;101198.84;5055034;28;20199;-52
2022/12/13 02:57:33;;;;;;;33.83;20.60;;;-0.20;69.80;;;2.43;53.76;101186.53;5053889;28;20253;-54
2022/12/13 03:00:07;;;;;;;35.43;21.73;;;-0.30;70.20;;;2.40;53.35;101189.34;5054841;28;20211;-51
2022/12/13 03:02:52;;;;;;;32.27;20.87;;;-0.30;70.40;;;2.37;54.01;101189.59;5055287;28;20220;-49
2022/12/13 03:08:30;;;;;;;37.80;20.70;;;-0.40;71.00;;;2.36;54.02;101190.50;5054285;28;20199;-52
2022/12/13 03:11:06;;;;;;;35.33;20.47;;;-0.40;71.90;;;2.41;54.63;101185.81;5054558;28;20193;-53
2022/12/13 03:13:48;;;;;;;37.23;21.03;;;-0.40;72.20;;;2.43;54.06;101180.50;5054241;28;20198;-53
2022/12/13 03:16:26;;;;;;;35.47;20.77;;;-0.40;72.60;;;2.43;54.12;101176.16;5054732;28;20175;-52
2022/12/13 03:18:59;;;;;;;35.27;20.17;;;-0.40;71.70;;;2.44;53.70;101182.16;5053994;28;20683;-54
2022/12/13 03:21:27;;;;;;;31.50;20.13;;;-0.40;71.40;;;2.44;53.83;101184.78;5054184;28;20195;-53
2022/12/13 03:23:54;;;;;;;35.17;19.60;;;-0.40;71.60;;;2.46;54.24;101178.53;5054717;28;20702;-53
2022/12/13 03:26:25;;;;;;;38.97;21.50;;;-0.30;72.20;;;2.46;53.86;101180.28;5054051;28;20195;-54
2022/12/13 03:28:53;;;;;;;39.20;21.37;;;-0.30;71.30;;;2.44;53.56;101179.56;5053942;28;20215;-55
2022/12/13 03:31:20;;;;;;;38.53;21.93;;;-0.30;70.90;;;2.38;53.40;101178.25;5053106;28;20203;-52
2022/12/13 03:33:49;;;;;;;37.93;21.53;;;-0.40;70.60;;;2.30;53.70;101170.19;5054290;28;20195;-53
2022/12/13 03:36:18;;;;;;;36.60;20.80;;;-0.40;70.40;;;2.26;53.76;101175.72;5054539;28;20618;-53
2022/12/13 03:38:51;;;;;;;35.50;22.03;;;-0.50;70.70;;;2.27;54.71;101178.19;5053694;28;20210;-52
2022/12/13 03:41:22;;;;;;;35.23;20.10;;;-0.50;72.00;;;2.34;54.07;101175.97;5054185;28;20179;-53
2022/12/13 03:43:50;;;;;;;34.53;21.27;;;-0.50;71.80;;;2.26;53.41;101168.75;5054285;28;20214;-52
2022/12/13 03:46:17;;;;;;;34.67;19.87;;;-0.50;70.40;;;2.17;53.67;101174.59;5055320;28;20204;-52
2022/12/13 03:48:44;;;;;;;34.93;20.70;;;-0.50;70.40;;;2.10;53.33;101165.59;5055706;28;20214;-50
2022/12/13 03:51:11;;;;;;;34.07;19.43;;;-0.60;70.30;;;2.06;53.61;101171.94;5055177;28;20492;-54
2022/12/13 03:53:39;;;;;;;32.30;18.37;;;-0.70;70.30;;;2.02;53.86;101166.13;5054554;28;20686;-52
2022/12/13 03:56:07;;;;;;;35.97;20.33;;;-0.70;70.50;;;2.01;53.64;101158.47;5053875;28;20194;-52
2022/12/13 03:58:35;;;;;;;35.43;20.07;;;-0.80;70.60;;;2.02;54.34;101160.16;5053819;28;20642;-51
2022/12/13 04:01:10;;;;;;;38.10;20.77;;;-0.80;71.70;;;2.06;54.71;101161.56;5053888;28;20191;-51
2022/12/13 04:03:39;;;;;;;33.60;20.50;;;-0.70;72.20;;;2.12;54.28;101176.69;5053912;28;20203;-50
2022/12/13 04:06:07;;;;;;;36.60;21.27;;;-0.70;71.90;;;2.13;54.34;101174.94;5053657;28;20191;-51
2022/12/13 04:08:36;;;;;;;32.70;20.20;;;-0.70;71.60;;;2.17;54.35;101174.59;5053541;28;20219;-52
2022/12/13 04:13:52;;;;;;;34.40;20.20;;;-0.70;71.70;;;2.17;53.50;101163.38;5054190;28;20175;-54
2022/12/13 04:16:20;;;;;;;35.00;19.37;;;-0.70;71.40;;;2.14;53.41;101159.25;5053871;28;20198;-51
2022/12/13 04:18:47;;;;;;;33.63;20.53;;;-0.70;71.00;;;2.13;54.27;101159.34;5054087;28;20713;-52
2022/12/13 04:21:15;;;;;;;34.20;19.67;;;-0.70;71.20;;;2.10;53.84;101151.78;5058261;28;20187;-52
2022/12/13 04:23:42;;;;;;;36.77;20.40;;;-0.70;71.40;;;2.08;53.94;101153.66;5058090;28;20682;-52
2022/12/13 04:26:10;;;;;;;33.23;20.20;;;-0.70;71.40;;;2.07;54.21;101147.63;5057752;28;20209;-52
2022/12/13 04:28:37;;;;;;;32.53;19.83;;;-0.80;71.90;;;2.11;54.48;101148.25;5057501;28;20229;-53
2022/12/13 04:31:05;;;;;;;35.23;19.23;;;-0.80;71.80;;;2.13;53.87;101152.41;5057319;28;20186;-53
2022/12/13 04:33:32;;;;;;;32.47;19.33;;;-0.70;71.90;;;2.16;54.51;101147.00;5057555;28;20236;-52
2022/12/13 04:35:59;;;;;;;34.83;18.97;;;-0.70;72.30;;;2.22;54.73;101146.53;5057096;28;20204;-53
2022/12/13 04:38:26;;;;;;;32.70;20.43;;;-0.70;72.50;;;2.22;53.79;101146.53;5056700;28;21636;-52
2022/12/13 04:41:05;;;;;;;37.70;21.43;;;-0.70;71.80;;;2.06;53.37;101138.22;5056948;28;20190;-52
2022/12/13 04:43:33;;;;;;;35.67;20.17;;;-0.70;70.70;;;1.93;53.60;101135.66;5057153;28;20206;-51
2022/12/13 04:46:00;;;;;;;38.17;20.67;;;-0.70;70.60;;;1.89;54.13;101138.59;5051856;28;20203;-52
2022/12/13 04:48:27;;;;;;;34.10;19.63;;;-0.80;70.80;;;1.89;54.29;101139.41;5037102;28;20275;-51
2022/12/13 04:50:58;;;;;;;36.40;21.97;;;-0.80;72.30;;;2.00;54.37;101142.06;5036907;28;20191;-52
2022/12/13 04:53:27;;;;;;;30.43;19.03;;;-0.90;72.60;;;2.15;54.75;101150.53;5041716;28;20205;-52
2022/12/13 04:55:55;;;;;;;34.83;20.07;;;-0.80;72.80;;;2.27;54.67;101148.81;5057422;28;20248;-51
2022/12/13 04:58:22;;;;;;;35.33;19.47;;;-0.70;72.80;;;2.35;54.10;101142.13;5057454;28;20249;-53
2022/12/13 05:00:50;;;;;;;31.50;19.30;;;-0.70;72.30;;;2.42;54.19;101142.50;5057400;28;20216;-51
2022/12/13 05:03:17;;;;;;;31.67;19.53;;;-0.60;72.30;;;2.45;53.10;101143.09;5056673;28;20220;-55
2022/12/13 05:05:44;;;;;;;33.07;19.10;;;-0.50;71.60;;;2.48;53.63;101142.88;5056053;28;20256;-55
2022/12/13 05:08:12;;;;;;;34.10;20.30;;;-0.50;71.70;;;2.53;53.15;101147.72;5056021;28;20212;-52
2022/12/13 05:10:39;;;;;;;34.20;18.87;;;-0.50;71.30;;;2.53;53.00;101139.94;5056674;28;20201;-54
2022/12/13 05:13:06;;;;;;;31.93;19.97;;;-0.50;71.10;;;2.56;53.04;101135.34;5056644;28;20560;-52
2022/12/13 05:15:34;;;;;;;32.17;19.40;;;-0.40;71.20;;;2.60;53.10;101136.78;5056730;28;20579;-52
2022/12/13 05:18:05;;;;;;;36.90;20.70;;;-0.40;71.00;;;2.55;52.90;101132.84;5056749;28;20276;-52
2022/12/13 05:20:38;;;;;;;32.63;18.93;;;-0.40;70.50;;;2.51;52.90;101132.28;5056785;28;20210;-53
2022/12/13 05:23:05;;;;;;;32.27;19.37;;;-0.40;70.50;;;2.46;52.85;101139.56;5057477;28;20217;-52
2022/12/13 05:25:35;;;;;;;32.70;19.00;;;-0.40;70.40;;;2.47;53.45;101130.81;5056682;28;20191;-53
2022/12/13 05:28:02;;;;;;;31.70;19.87;;;-0.50;71.00;;;2.52;53.59;101128.72;5056258;28;20276;-55
2022/12/13 05:30:50;;;;;;;33.97;20.70;;;-0.40;71.30;;;2.58;52.96;101133.47;5054954;28;20286;-52
2022/12/13 05:33:18;;;;;;;34.20;18.20;;;-0.40;71.10;;;2.59;52.88;101135.09;5056106;28;20187;-54
2022/12/13 05:35:45;;;;;;;33.43;19.37;;;-0.30;70.60;;;2.60;52.94;101135.94;5055866;28;20192;-53
2022/12/13 05:38:12;;;;;;;33.53;19.10;;;-0.30;70.60;;;2.60;52.71;101135.94;5055174;28;20632;-52
2022/12/13 05:40:40;;;;;;;33.37;20.20;;;-0.30;70.30;;;2.53;52.67;101130.38;5056547;28;20317;-53
2022/12/13 05:43:09;;;;;;;35.67;20.83;;;-0.30;69.90;;;2.41;52.54;101139.06;5054920;28;20244;-53
2022/12/13 05:45:48;;;;;;;34.17;20.17;;;-0.40;69.70;;;2.29;53.08;101131.34;5051914;28;20255;-51
2022/12/13 05:48:16;;;;;;;34.17;21.80;;;-0.40;69.80;;;2.22;53.33;101128.38;5035457;28;20274;-53
2022/12/13 05:50:52;;;;;;;34.83;20.33;;;-0.50;70.10;;;2.16;53.26;101131.44;5049916;28;20196;-51
2022/12/13 05:53:39;;;;;;;33.10;18.30;;;-0.50;70.20;;;2.17;53.39;101127.03;5056019;28;20623;-53
2022/12/13 05:56:07;;;;;;;30.97;19.03;;;-0.60;70.40;;;2.17;53.76;101122.69;5055938;28;20208;-53
2022/12/13 05:58:37;;;;;;;37.83;21.27;;;-0.60;70.60;;;2.18;53.95;101123.53;5055449;28;20337;-53
2022/12/13 06:01:06;;;;;;;33.30;18.77;;;-0.70;70.90;;;2.13;54.04;101121.25;5056133;28;20275;-52
2022/12/13 06:03:33;;;;;;;33.87;19.00;;;-0.70;71.00;;;2.07;53.64;101116.50;5055302;28;20222;-53
2022/12/13 06:06:03;;;;;;;35.33;20.13;;;-0.70;71.00;;;1.95;54.52;101117.38;5056012;28;20187;-52
2022/12/13 06:08:31;;;;;;;35.50;20.27;;;-0.70;71.20;;;1.93;54.77;101114.06;5055912;28;20292;-52
2022/12/13 06:11:00;;;;;;;42.23;21.43;;;-0.70;71.40;;;1.94;54.97;101116.56;5054535;28;20692;-52
2022/12/13 06:13:39;;;;;;;32.43;20.30;;;-0.80;71.60;;;1.95;54.72;101117.38;5055150;28;20666;-51
2022/12/13 06:16:11;;;;;;;32.70;19.17;;;-0.80;72.00;;;2.00;54.62;101117.88;5055442;28;20191;-53
2022/12/13 06:18:52;;;;;;;35.77;21.10;;;-0.80;71.80;;;2.09;54.24;101119.84;5055323;28;20223;-52
2022/12/13 06:21:28;;;;;;;33.23;19.67;;;-0.80;72.20;;;2.11;54.75;101111.94;5056252;28;20198;-52
2022/12/13 06:24:14;;;;;;;37.00;20.80;;;-0.80;72.40;;;2.11;55.01;101127.50;5055703;28;20206;-52
2022/12/13 06:26:41;;;;;;;38.17;21.37;;;-0.70;72.70;;;2.09;54.98;101125.03;5055597;28;20183;-53
2022/12/13 06:29:11;;;;;;;33.97;20.43;;;-0.70;73.10;;;2.11;54.92;101125.75;5055206;28;20306;-51
2022/12/13 06:31:56;;;;;;;34.73;19.50;;;-0.70;73.00;;;2.21;54.88;101128.50;5055992;28;20532;-52
2022/12/13 06:34:32;;;;;;;39.50;20.80;;;-0.70;73.20;;;2.34;55.31;101134.44;5056021;28;20179;-53
2022/12/13 06:37:02;;;;;;;33.60;19.27;;;-0.60;73.70;;;2.45;55.17;101135.31;5055614;28;20711;-51
2022/12/13 06:39:29;;;;;;;41.50;21.07;;;-0.60;73.70;;;2.59;55.14;101132.50;5054348;28;20259;-53
2022/12/13 06:42:01;;;;;;;37.77;20.23;;;-0.40;74.20;;;2.76;54.85;101135.66;5057310;28;20191;-51
2022/12/13 06:44:28;;;;;;;37.87;21.47;;;-0.30;74.10;;;2.87;54.37;101139.09;5063239;28;20210;-55
2022/12/13 06:46:55;;;;;;;34.60;21.33;;;-0.20;73.30;;;2.91;53.89;101130.13;5063410;28;20205;-54
2022/12/13 06:49:41;;;;;;;35.83;20.10;;;-0.10;72.70;;;2.95;54.07;101133.31;5058080;28;20639;-53
2022/12/13 06:52:12;;;;;;;35.13;20.23;;;0.00;72.50;;;2.98;53.83;101131.31;5061625;28;20183;-56
2022/12/13 06:54:43;;;;;;;36.10;21.73;;;0.00;72.20;;;2.96;53.83;101128.00;5061772;28;20177;-54
2022/12/13 06:57:12;;;;;;;41.97;21.90;;;0.00;71.70;;;2.97;53.94;101142.63;5063295;28;20216;-55
2022/12/13 06:59:39;;;;;;;34.90;21.67;;;0.00;71.80;;;2.96;53.83;101138.41;5047881;28;20223;-56
2022/12/13 07:02:07;;;;;;;37.13;21.83;;;0.10;72.00;;;2.97;54.17;101134.03;5041620;28;20201;-55
2022/12/13 07:04:53;;;;;;;37.00;20.10;;;0.00;72.30;;;3.06;54.29;101138.53;5042583;28;20598;-56
2022/12/13 07:07:24;;;;;;;40.83;21.87;;;0.10;72.70;;;3.14;53.88;101141.34;5040834;28;20605;-56
2022/12/13 07:09:52;;;;;;;33.90;21.20;;;0.20;72.60;;;3.19;54.41;101139.22;5040351;28;20219;-55
2022/12/13 07:12:19;;;;;;;37.83;21.37;;;0.20;72.50;;;3.26;53.89;101137.81;5044603;28;20206;-53
2022/12/13 07:14:47;;;;;;;40.47;21.17;;;0.20;72.40;;;3.34;54.44;101148.47;5046403;28;20196;-52
2022/12/13 07:17:14;;;;;;;40.30;20.97;;;0.30;72.50;;;3.37;53.83;101148.25;5045133;28;20270;-52
2022/12/13 07:20:03;;;;;;;35.63;20.70;;;0.30;72.40;;;3.45;54.20;101150.25;5042890;28;20224;-57
2022/12/13 07:22:31;;;;;;;35.20;21.20;;;0.50;73.10;;;3.55;53.75;101141.59;5041502;28;20246;-56
2022/12/13 07:25:04;;;;;;;42.53;22.57;;;0.50;72.80;;;3.66;53.80;101144.19;5040978;28;20202;-53
2022/12/13 07:27:31;;;;;;;46.23;22.90;;;0.60;72.50;;;3.61;52.91;101141.13;5034810;28;20207;-54
2022/12/13 07:29:59;;;;;;;45.30;23.90;;;0.60;71.60;;;3.47;53.31;101143.97;5044487;28;20218;-52
2022/12/13 07:32:26;;;;;;;56.37;34.77;;;0.60;71.20;;;3.42;53.68;101148.72;5053987;28;20722;-54
2022/12/13 07:34:53;;;;;;;48.23;24.67;;;0.60;71.70;;;3.40;54.42;101147.97;5052949;28;20187;-52
2022/12/13 07:37:21;;;;;;;47.17;23.80;;;0.60;72.20;;;3.31;54.27;101136.53;5054509;28;20256;-51
2022/12/13 07:39:58;;;;;;;48.40;24.57;;;0.50;72.00;;;3.30;54.85;101149.66;5054118;28;20231;-52
2022/12/13 07:42:31;;;;;;;56.73;29.60;;;0.50;73.00;;;3.39;55.00;101151.53;5054479;28;20258;-50
2022/12/13 07:44:58;;;;;;;51.93;24.63;;;0.50;73.50;;;3.45;54.90;101158.06;5054503;28;20694;-53
2022/12/13 07:47:28;;;;;;;46.80;23.23;;;0.50;73.40;;;3.42;54.91;101159.13;5037187;28;20229;-55
2022/12/13 07:49:56;;;;;;;48.10;22.57;;;0.50;73.30;;;3.35;54.73;101163.13;5033641;28;20219;-55
2022/12/13 07:52:23;;;;;;;49.43;24.17;;;0.50;73.10;;;3.26;55.40;101162.06;5033913;28;20187;-52
2022/12/13 07:54:50;;;;;;;49.20;24.47;;;0.50;73.30;;;3.18;55.38;101164.44;5032825;28;20191;-52
2022/12/13 07:57:19;;;;;;;43.40;23.77;;;0.40;73.40;;;3.14;55.97;101162.16;5034922;28;20196;-53
2022/12/13 07:59:46;;;;;;;44.37;23.50;;;0.30;73.60;;;3.13;55.81;101176.94;5050443;28;20296;-51
2022/12/13 08:02:13;;;;;;;51.57;23.67;;;0.30;74.20;;;3.10;56.10;101178.94;5054600;28;20556;-53
2022/12/13 08:04:41;;;;;;;47.80;24.03;;;0.30;74.50;;;3.03;55.78;101175.16;5053794;28;20213;-51
2022/12/13 08:07:09;;;;;;;50.50;24.70;;;0.20;74.30;;;2.96;56.17;101173.94;5054237;28;20190;-52
2022/12/13 08:09:37;;;;;;;48.03;25.07;;;0.20;74.70;;;2.91;56.55;101165.66;5053389;28;20223;-51
2022/12/13 08:12:04;;;;;;;48.40;24.70;;;0.10;74.80;;;2.84;57.23;101174.88;5053926;28;20194;-52
2022/12/13 08:14:32;;;;;;;50.67;23.33;;;0.00;75.70;;;2.69;57.12;101175.06;5053827;28;20200;-53
2022/12/13 08:17:00;;;;;;;48.93;23.17;;;0.00;75.80;;;2.69;57.67;101180.25;5054062;28;20229;-54
2022/12/13 08:19:27;;;;;;;52.80;24.70;;;-0.10;76.40;;;2.61;58.49;101174.81;5054015;28;20236;-52
2022/12/13 08:21:55;;;;;;;81.10;39.50;;;-0.20;77.10;;;2.39;59.03;101179.91;5054436;28;20198;-50
2022/12/13 08:24:30;;;;;;;50.23;25.47;;;-0.30;77.70;;;2.30;60.05;101175.41;5068075;28;20222;-53
2022/12/13 08:27:00;;;;;;;49.70;24.60;;;-0.30;78.50;;;2.32;59.72;101173.50;5053629;28;20672;-53
2022/12/13 08:29:29;;;;;;;59.63;26.63;;;-0.30;78.60;;;2.34;60.26;101171.63;5052490;28;20207;-52
2022/12/13 08:32:04;;;;;;;52.37;25.97;;;-0.30;79.00;;;2.40;59.61;101178.94;5053244;28;20648;-52
2022/12/13 08:34:31;;;;;;;57.43;25.93;;;-0.30;79.20;;;2.45;59.82;101174.25;5053350;28;20229;-53
2022/12/13 08:36:59;;;;;;;65.47;28.80;;;-0.30;79.30;;;2.50;59.95;101169.56;5053198;28;20595;-53
2022/12/13 08:39:29;;;;;;;61.43;25.67;;;-0.30;79.90;;;2.57;60.16;101168.16;5051781;28;20703;-53
2022/12/13 08:42:03;;;;;;;59.90;26.63;;;-0.30;80.10;;;2.59;59.72;101163.69;5054066;28;20280;-52
2022/12/13 08:44:44;;;;;;;59.70;27.13;;;-0.30;79.70;;;2.53;59.92;101165.91;5055650;28;20241;-53
2022/12/13 08:47:12;;;;;;;79.70;28.50;;;-0.20;79.40;;;2.48;59.74;101155.88;5057635;28;20349;-53
2022/12/13 08:49:58;;;;;;;53.97;25.27;;;-0.30;79.70;;;2.35;60.15;101156.88;5060497;28;20227;-56
2022/12/13 08:52:31;;;;;;;55.50;26.67;;;-0.30;79.80;;;2.31;60.51;101164.03;5045473;28;20202;-52
2022/12/13 08:55:07;;;;;;;50.57;25.30;;;-0.30;79.90;;;2.17;61.17;101156.44;5053020;28;20204;-54
2022/12/13 08:57:35;;;;;;;60.13;24.83;;;-0.40;80.30;;;2.21;61.82;101155.25;5052885;28;20216;-54
2022/12/13 09:00:04;;;;;;;54.00;25.37;;;-0.40;80.20;;;2.29;61.41;101170.28;5040244;28;20246;-53
2022/12/13 09:02:32;;;;;;;56.93;27.50;;;-0.40;80.40;;;2.34;61.09;101166.44;5033780;28;20368;-55
2022/12/13 09:05:09;;;;;;;52.73;27.27;;;-0.40;80.80;;;2.36;60.81;101168.91;5035293;28;20257;-54
2022/12/13 09:07:40;;;;;;;55.13;26.20;;;-0.40;80.80;;;2.40;61.01;101170.38;5037856;28;20343;-51
2022/12/13 09:10:09;;;;;;;60.23;26.40;;;-0.40;80.90;;;2.42;61.49;101168.47;5037492;28;20255;-55
2022/12/13 09:12:58;;;;;;;77.63;28.53;;;-0.30;81.40;;;2.40;60.84;101168.56;5038738;28;20200;-55
2022/12/13 09:15:31;;;;;;;56.93;26.87;;;-0.30;80.90;;;2.37;60.65;101174.00;5039364;28;20185;-52
2022/12/13 09:18:04;;;;;;;66.57;30.37;;;-0.30;80.60;;;2.34;60.34;101171.63;5047007;28;20269;-52
2022/12/13 09:20:31;;;;;;;49.77;24.27;;;-0.30;80.30;;;2.45;60.88;101179.44;5049317;28;20282;-51
2022/12/13 09:23:07;;;;;;;47.70;24.20;;;-0.30;80.50;;;2.56;60.28;101176.91;5052765;28;20199;-52
2022/12/13 09:25:53;;;;;;;55.30;28.57;;;-0.30;80.90;;;2.61;60.07;101189.56;5055907;28;20215;-53
2022/12/13 09:28:21;;;;;;;46.93;26.00;;;-0.20;80.60;;;2.62;60.05;101192.03;5056786;28;20180;-57
2022/12/13 09:30:51;;;;;;;60.30;25.60;;;-0.20;80.80;;;2.81;60.96;101195.88;5057405;28;20208;-53
2022/12/13 09:33:20;;;;;;;45.20;23.37;;;-0.10;81.70;;;3.01;60.34;101195.22;5057493;28;20217;-54
2022/12/13 09:35:57;;;;;;;45.60;22.40;;;0.00;80.90;;;3.12;59.58;101198.69;5041693;28;20253;-51
2022/12/13 09:38:27;;;;;;;46.00;24.17;;;0.00;80.60;;;3.08;58.60;101193.81;5035614;28;20227;-52
2022/12/13 09:41:02;;;;;;;50.13;23.73;;;0.10;79.40;;;3.05;58.67;101188.84;5036609;28;20196;-53
2022/12/13 09:43:48;;;;;;;44.43;23.80;;;0.10;78.90;;;3.03;58.86;101186.38;5036280;28;20191;-51
2022/12/13 09:46:28;;;;;;;53.97;25.47;;;0.10;78.80;;;2.99;58.90;101191.91;5045139;28;20245;-54
2022/12/13 09:49:09;;;;;;;51.03;27.20;;;0.10;78.80;;;2.95;59.18;101185.31;5055555;28;20241;-52
2022/12/13 09:51:47;;;;;;;45.13;23.70;;;0.10;79.70;;;2.95;58.96;101187.91;5056573;28;20249;-52
2022/12/13 09:54:34;;;;;;;44.53;23.50;;;0.10;78.90;;;3.06;59.29;101195.72;5052437;28;20295;-53
2022/12/13 09:57:03;;;;;;;51.30;25.27;;;0.10;79.40;;;3.10;59.02;101186.75;5040089;28;20196;-53
2022/12/13 09:59:34;;;;;;;44.13;24.50;;;0.20;79.50;;;3.09;59.15;101185.09;5035593;28;20207;-51
2022/12/13 10:02:14;;;;;;;46.83;24.50;;;0.20;79.90;;;3.12;59.24;101185.69;5042699;28;20219;-52
2022/12/13 10:04:43;;;;;;;50.97;26.40;;;0.20;80.00;;;3.17;59.02;101188.75;5054603;28;20223;-55
2022/12/13 10:07:17;;;;;;;52.70;26.77;;;0.30;79.80;;;3.11;58.98;101180.59;5049793;28;20197;-51
2022/12/13 10:09:46;;;;;;;52.70;26.47;;;0.30;79.30;;;3.14;59.31;101177.75;5047426;28;20254;-52
2022/12/13 10:12:16;;;;;;;77.87;28.57;;;0.30;79.40;;;3.09;59.30;101169.50;5048618;28;20647;-52
2022/12/13 10:14:52;;;;;;;56.10;26.70;;;0.20;79.40;;;3.10;59.43;101165.94;5051401;28;20214;-54
2022/12/13 10:17:24;;;;;;;50.30;25.33;;;0.30;79.50;;;3.14;59.24;101162.16;5047756;28;20709;-54
2022/12/13 10:19:53;;;;;;;55.17;26.97;;;0.30;79.90;;;3.24;59.96;101163.13;5049037;28;20249;-52
2022/12/13 10:22:23;;;;;;;64.00;29.00;;;0.30;80.40;;;3.26;59.53;101162.06;5045788;28;20199;-52
2022/12/13 10:24:53;;;;;;;56.53;26.10;;;0.40;80.30;;;3.32;59.09;101159.00;5050784;28;20202;-52
2022/12/13 10:27:28;;;;;;;54.60;27.30;;;0.40;80.00;;;3.39;59.06;101154.16;5051724;28;20636;-52
2022/12/13 10:30:07;;;;;;;62.90;30.40;;;0.40;80.20;;;3.27;59.13;101162.88;5057175;28;20219;-52
2022/12/13 10:32:53;;;;;;;64.80;30.23;;;0.40;80.20;;;3.15;59.79;101158.63;5055011;28;20184;-53
2022/12/13 10:35:35;;;;;;;53.77;30.10;;;0.40;80.10;;;3.21;60.00;101147.78;5054463;28;20221;-51